Powderville, Montana
Current Conditions -  °F | °C
As of 1:51 AM on Saturday 20 Dec 2014 (Local Time) from KBHK Reporting Station
Overcast Overcast  
Wind Chill: -2°   Ceiling: 7500
Heat Index: -2°   Visibility: 10mi
Dew Point: -3°   Wind: 0mph
Humidity: 92%   Direction: NA
Pressure: 29.86"   Gusts: NA
Location:  45.76°N, 105.11°W
Report Text: KBHK 200851Z AUTO 00000KT 10SM OVC075 M02/M03 A2986 RMK AO2 SLP129 T10171028 56008
Loading
Personal Weather Stations






























Interactive Weather Map New forecast layout! Learn more

10-Day Weather Forecast

Advertisements
Track Severe Weather on mobile